Time;durP1;ratioP1;P1;durP2;ratioP2;P2;SDS_P1;SDS_P2;PMS_P1;PMS_P2;Temp;Humidity;BMP_temperature;BMP_pressure;BME280_temperature;BME280_humidity;BME280_pressure;Samples;Min_cycle;Max_cycle;Signal;HPM_P1;HPM_P2
2023/06/09 00:02:21;;;;;;;7.43;6.22;;;18.30;99.90;;;;;;5011866;28;20073;-91
2023/06/09 00:04:48;;;;;;;12.70;7.15;;;18.30;99.90;;;;;;5011992;28;20548;-92
2023/06/09 00:07:16;;;;;;;11.23;6.82;;;18.30;99.90;;;;;;5011660;28;20038;-90
2023/06/09 00:09:45;;;;;;;14.27;7.57;;;18.40;99.90;;;;;;5012436;28;20026;-92
2023/06/09 00:12:12;;;;;;;13.70;6.20;;;18.40;99.90;;;;;;5015434;28;20029;-92
2023/06/09 00:14:38;;;;;;;13.02;6.40;;;18.50;99.90;;;;;;5015526;28;20541;-91
2023/06/09 00:17:08;;;;;;;11.88;5.90;;;18.50;99.90;;;;;;5017397;28;20026;-92
2023/06/09 00:19:37;;;;;;;11.63;5.78;;;18.50;99.90;;;;;;5021527;28;20032;-92
2023/06/09 00:22:03;;;;;;;15.82;5.90;;;18.50;99.90;;;;;;5015882;28;20037;-92
2023/06/09 00:24:29;;;;;;;14.02;5.93;;;18.50;99.90;;;;;;5016208;28;20018;-92
2023/06/09 00:26:54;;;;;;;11.88;5.55;;;18.50;99.90;;;;;;5018737;28;20029;-92
2023/06/09 00:29:23;;;;;;;10.02;5.85;;;18.50;99.90;;;;;;5015913;28;20161;-92
2023/06/09 00:31:49;;;;;;;7.28;4.82;;;18.50;99.90;;;;;;5015930;28;20029;-91
2023/06/09 00:34:15;;;;;;;12.48;6.50;;;18.50;99.90;;;;;;5016775;28;20478;-92
2023/06/09 00:36:41;;;;;;;8.85;6.35;;;18.40;99.90;;;;;;5015771;28;20108;-91
2023/06/09 00:39:07;;;;;;;10.00;5.90;;;18.40;99.90;;;;;;5015694;28;20087;-92
2023/06/09 00:41:37;;;;;;;7.93;5.43;;;18.40;99.90;;;;;;5015885;28;20516;-92
2023/06/09 00:44:04;;;;;;;9.18;5.05;;;18.20;99.90;;;;;;5015912;28;20490;-93
2023/06/09 00:46:29;;;;;;;6.53;4.90;;;18.20;99.90;;;;;;5015727;28;20014;-92
2023/06/09 00:48:56;;;;;;;7.97;6.15;;;18.10;99.90;;;;;;5015821;28;20030;-91
2023/06/09 00:51:22;;;;;;;8.85;6.13;;;18.10;99.90;;;;;;5015685;28;20040;-92
2023/06/09 00:53:47;;;;;;;15.57;6.28;;;18.00;99.90;;;;;;5015555;28;20022;-92
2023/06/09 00:56:13;;;;;;;10.00;5.68;;;18.00;99.90;;;;;;5018589;28;20034;-89
2023/06/09 00:58:39;;;;;;;9.50;4.90;;;18.00;99.90;;;;;;5024547;28;20474;-91
2023/06/09 01:01:05;;;;;;;7.03;5.40;;;18.00;99.90;;;;;;5018073;28;20036;-91
2023/06/09 01:03:32;;;;;;;7.97;4.63;;;18.00;99.90;;;;;;5015827;28;20482;-92
2023/06/09 01:06:23;;;;;;;6.03;4.65;;;18.10;99.90;;;;;;5016222;28;20010;-91
2023/06/09 01:09:01;;;;;;;6.15;4.40;;;18.00;99.90;;;;;;5009545;28;20137;-91
2023/06/09 01:11:33;;;;;;;7.18;4.22;;;18.10;99.90;;;;;;5014834;28;20026;-90
2023/06/09 01:14:13;;;;;;;8.45;4.70;;;18.10;99.90;;;;;;5015610;28;20537;-91
2023/06/09 01:16:52;;;;;;;5.95;4.15;;;18.20;99.90;;;;;;5016140;28;20025;-92
2023/06/09 01:19:31;;;;;;;7.97;4.88;;;18.30;99.90;;;;;;5014820;28;20029;-93
2023/06/09 01:22:02;;;;;;;11.75;5.38;;;18.40;99.90;;;;;;5016163;28;20080;-90
2023/06/09 01:24:48;;;;;;;7.28;4.93;;;18.40;99.90;;;;;;5016028;28;20026;-91
2023/06/09 01:27:18;;;;;;;5.65;3.85;;;18.50;99.90;;;;;;5015474;28;20449;-92
2023/06/09 01:29:46;;;;;;;7.28;5.22;;;18.60;99.90;;;;;;5016043;28;20478;-91
2023/06/09 01:32:15;;;;;;;10.95;4.95;;;18.60;99.90;;;;;;5014178;28;20026;-92
2023/06/09 01:34:42;;;;;;;11.57;5.57;;;18.60;99.90;;;;;;5016070;28;20478;-92
2023/06/09 01:37:08;;;;;;;7.80;5.07;;;18.50;99.90;;;;;;5014716;28;20030;-92
2023/06/09 01:39:34;;;;;;;10.25;4.85;;;18.40;99.90;;;;;;5017321;28;20033;-91
2023/06/09 01:42:00;;;;;;;12.45;5.55;;;18.30;99.90;;;;;;5014935;28;20038;-92
2023/06/09 01:44:25;;;;;;;10.90;4.68;;;18.30;99.90;;;;;;5016161;28;20478;-90
2023/06/09 01:46:51;;;;;;;13.93;4.65;;;18.30;99.90;;;;;;5015179;28;20030;-92
2023/06/09 01:49:44;;;;;;;12.20;4.90;;;18.30;99.90;;;;;;5014632;28;20036;-91
2023/06/09 01:52:21;;;;;;;5.88;4.13;;;18.30;99.90;;;;;;5013817;28;20025;-92
2023/06/09 01:54:52;;;;;;;;;;;18.30;99.90;;;;;;5013620;28;20371;-92
2023/06/09 01:57:23;;;;;;;9.48;4.60;;;18.30;99.90;;;;;;5014376;28;19905;-92
2023/06/09 02:00:05;;;;;;;22.38;5.88;;;18.40;99.90;;;;;;5013984;28;20029;-89
2023/06/09 02:02:33;;;;;;;21.05;7.97;;;18.40;99.90;;;;;;5013570;28;20046;-90
2023/06/09 02:05:00;;;;;;;20.45;8.07;;;18.30;99.90;;;;;;5023794;28;20033;-92
2023/06/09 02:07:27;;;;;;;11.23;6.25;;;18.20;99.90;;;;;;5028108;28;20034;-91
2023/06/09 02:09:54;;;;;;;22.90;9.68;;;18.10;99.90;;;;;;5019083;28;20022;-91
2023/06/09 02:12:20;;;;;;;16.20;9.68;;;18.00;99.90;;;;;;5013942;28;20029;-91
2023/06/09 02:14:46;;;;;;;19.75;8.05;;;17.90;99.90;;;;;;5014001;28;20452;-92
2023/06/09 02:17:12;;;;;;;14.57;8.48;;;17.80;99.90;;;;;;5014624;28;20562;-91
2023/06/09 02:19:38;;;;;;;16.52;8.10;;;17.80;99.90;;;;;;5014984;28;20105;-91
2023/06/09 02:22:07;;;;;;;19.20;8.27;;;17.70;99.90;;;;;;5013839;28;20521;-91
2023/06/09 02:24:33;;;;;;;10.77;7.28;;;17.60;99.90;;;;;;5013343;28;20129;-90
2023/06/09 02:27:00;;;;;;;17.65;7.97;;;17.60;99.90;;;;;;5014937;28;20494;-90
2023/06/09 02:29:26;;;;;;;17.08;7.55;;;17.50;99.90;;;;;;5013032;28;20030;-89
2023/06/09 02:31:58;;;;;;;23.88;8.02;;;17.50;99.90;;;;;;5014846;28;20022;-90
2023/06/09 02:34:24;;;;;;;12.50;8.65;;;17.40;99.90;;;;;;5013698;28;20037;-90
2023/06/09 02:36:52;;;;;;;14.32;8.98;;;17.40;99.90;;;;;;5014388;28;20030;-92
2023/06/09 02:39:19;;;;;;;12.50;8.18;;;17.30;99.90;;;;;;5013510;28;20445;-91
2023/06/09 02:41:45;;;;;;;18.13;9.32;;;17.30;99.90;;;;;;5013145;28;20030;-91
2023/06/09 02:44:11;;;;;;;16.42;8.65;;;17.30;99.90;;;;;;5013510;28;20030;-92
2023/06/09 02:46:38;;;;;;;22.60;9.55;;;17.30;99.90;;;;;;5014496;28;20037;-92
2023/06/09 02:49:04;;;;;;;23.38;8.57;;;17.30;99.90;;;;;;5018972;28;20090;-92
2023/06/09 02:51:30;;;;;;;15.98;7.47;;;17.30;99.90;;;;;;5013188;28;20046;-91
2023/06/09 02:53:56;;;;;;;12.90;8.20;;;17.20;99.90;;;;;;5013275;28;20040;-91
2023/06/09 02:56:22;;;;;;;13.05;8.55;;;17.20;99.90;;;;;;5013586;28;20017;-90
2023/06/09 02:58:48;;;;;;;15.25;9.02;;;17.20;99.90;;;;;;5020714;28;20490;-91
2023/06/09 03:01:17;;;;;;;16.98;8.73;;;17.30;99.90;;;;;;5014185;28;20109;-91
2023/06/09 03:03:44;;;;;;;12.90;7.90;;;17.30;99.90;;;;;;5013309;28;20025;-90
2023/06/09 03:06:09;;;;;;;20.08;7.97;;;17.30;99.90;;;;;;5013209;28;20482;-90
2023/06/09 03:08:35;;;;;;;11.95;6.90;;;17.30;99.90;;;;;;5014074;28;20044;-89
2023/06/09 03:11:01;;;;;;;13.55;8.43;;;17.20;99.90;;;;;;5013094;28;20024;-90
2023/06/09 03:13:27;;;;;;;10.18;7.60;;;17.20;99.90;;;;;;5020739;28;20128;-90
2023/06/09 03:15:53;;;;;;;12.15;6.70;;;17.20;99.90;;;;;;5033661;28;20100;-89
2023/06/09 03:18:19;;;;;;;9.93;6.43;;;17.20;99.90;;;;;;5016382;28;20033;-90
2023/06/09 03:20:45;;;;;;;10.57;7.90;;;17.20;99.90;;;;;;5016236;28;20509;-89
2023/06/09 03:23:11;;;;;;;10.85;6.78;;;17.20;99.90;;;;;;5033609;28;20518;-90
2023/06/09 03:25:37;;;;;;;10.82;6.95;;;17.20;99.90;;;;;;5033521;28;20036;-89
2023/06/09 03:28:03;;;;;;;12.43;7.93;;;17.30;99.90;;;;;;5016049;28;20459;-87
2023/06/09 03:30:28;;;;;;;14.88;7.35;;;17.30;99.90;;;;;;5015934;28;20029;-89
2023/06/09 03:32:54;;;;;;;12.60;6.53;;;17.30;99.90;;;;;;5015949;28;20017;-90
2023/06/09 03:35:20;;;;;;;7.57;5.53;;;17.40;99.90;;;;;;5015868;28;20401;-89
2023/06/09 03:37:46;;;;;;;11.13;6.13;;;17.40;99.90;;;;;;5015830;28;20388;-89
2023/06/09 03:40:12;;;;;;;6.88;4.97;;;17.40;99.90;;;;;;5015924;28;20033;-89
2023/06/09 03:42:37;;;;;;;6.97;5.40;;;17.50;99.90;;;;;;5015613;28;20038;-89
2023/06/09 03:45:03;;;;;;;7.88;5.68;;;17.50;99.90;;;;;;5033267;28;20108;-90
2023/06/09 03:47:29;;;;;;;6.70;5.47;;;17.50;99.90;;;;;;5015507;28;20041;-89
2023/06/09 03:49:55;;;;;;;9.25;5.63;;;17.60;99.90;;;;;;5015669;28;20496;-89
2023/06/09 03:52:21;;;;;;;9.52;5.80;;;17.60;99.90;;;;;;5015798;28;20091;-89
2023/06/09 03:54:48;;;;;;;16.60;4.95;;;17.60;99.90;;;;;;5015711;28;20375;-89
2023/06/09 03:57:13;;;;;;;6.50;5.00;;;17.60;99.90;;;;;;5032972;28;20026;-89
2023/06/09 03:59:39;;;;;;;10.85;5.57;;;17.60;99.90;;;;;;5033216;28;20026;-89
2023/06/09 04:02:05;;;;;;;7.63;5.28;;;17.60;99.90;;;;;;5015599;28;20602;-89
2023/06/09 04:04:31;;;;;;;9.55;5.07;;;17.60;99.90;;;;;;5033265;28;20032;-89
2023/06/09 04:06:58;;;;;;;7.45;4.90;;;17.60;99.90;;;;;;5015668;28;20029;-89
2023/06/09 04:09:24;;;;;;;7.97;5.20;;;17.60;99.90;;;;;;5032294;28;20021;-88
2023/06/09 04:11:50;;;;;;;9.30;5.03;;;17.70;99.90;;;;;;5015466;28;20507;-88
2023/06/09 04:14:16;;;;;;;10.30;5.25;;;17.70;99.90;;;;;;5015344;28;20053;-88
2023/06/09 04:16:41;;;;;;;6.68;5.35;;;17.80;99.90;;;;;;5032932;28;20021;-89
2023/06/09 04:19:08;;;;;;;11.55;5.25;;;17.90;99.90;;;;;;5015443;28;20043;-88
2023/06/09 04:21:35;;;;;;;22.27;7.05;;;18.00;99.90;;;;;;5032246;28;20524;-89
2023/06/09 04:24:01;;;;;;;7.55;5.35;;;18.10;99.90;;;;;;5031769;28;20029;-88
2023/06/09 04:26:27;;;;;;;7.80;4.60;;;18.40;99.90;;;;;;5014482;28;20025;-88
2023/06/09 04:28:53;;;;;;;8.98;5.25;;;18.70;99.90;;;;;;5032645;28;20040;-87
2023/06/09 04:31:23;;;;;;;11.32;4.45;;;18.90;99.90;;;;;;5032350;28;20030;-88
2023/06/09 04:33:54;;;;;;;6.50;3.90;;;19.10;99.90;;;;;;5032826;28;20020;-89
2023/06/09 04:36:20;;;;;;;6.25;3.97;;;19.30;99.90;;;;;;5015214;28;20124;-88
2023/06/09 04:38:47;;;;;;;5.70;3.80;;;19.40;99.90;;;;;;5015036;28;20029;-88
2023/06/09 04:41:12;;;;;;;10.90;4.32;;;19.40;99.90;;;;;;5014921;28;20051;-88
2023/06/09 04:43:39;;;;;;;7.80;3.67;;;19.50;99.90;;;;;;5015226;28;20025;-88
2023/06/09 04:46:08;;;;;;;8.30;3.63;;;19.60;99.90;;;;;;5032686;28;20136;-89
2023/06/09 04:48:34;;;;;;;10.68;3.85;;;19.80;99.90;;;;;;5014927;28;20025;-88
2023/06/09 04:51:01;;;;;;;7.50;3.88;;;19.90;99.90;;;;;;5032135;28;20032;-88
2023/06/09 04:53:27;;;;;;;5.63;3.45;;;19.90;99.90;;;;;;5015538;28;20029;-88
2023/06/09 04:55:53;;;;;;;8.30;3.30;;;19.80;99.90;;;;;;5032267;28;20039;-88
2023/06/09 04:58:19;;;;;;;6.10;3.42;;;19.70;99.90;;;;;;5015761;28;20036;-90
2023/06/09 05:00:45;;;;;;;6.80;3.38;;;19.60;99.90;;;;;;5037108;28;20060;-89
2023/06/09 05:03:13;;;;;;;9.48;3.80;;;19.50;99.90;;;;;;5018509;28;20488;-89
2023/06/09 05:05:40;;;;;;;4.97;3.33;;;19.40;99.90;;;;;;5019932;28;20021;-88
2023/06/09 05:08:05;;;;;;;6.75;3.80;;;19.30;99.90;;;;;;5018630;28;20061;-88
2023/06/09 05:10:31;;;;;;;7.35;3.63;;;19.20;99.90;;;;;;5019792;28;20022;-88
2023/06/09 05:12:57;;;;;;;8.38;4.10;;;19.00;99.90;;;;;;5044997;28;20077;-87
2023/06/09 05:15:23;;;;;;;7.60;4.20;;;19.00;99.90;;;;;;5057323;28;20077;-87
2023/06/09 05:17:49;;;;;;;13.93;4.32;;;18.90;99.90;;;;;;5034009;28;20038;-88
2023/06/09 05:20:15;;;;;;;8.32;5.32;;;18.80;99.90;;;;;;5036072;28;20018;-88
2023/06/09 05:22:41;;;;;;;8.85;5.18;;;18.70;99.90;;;;;;5035703;28;20100;-87
2023/06/09 05:25:09;;;;;;;6.25;4.85;;;18.70;99.90;;;;;;5035381;28;20056;-89
2023/06/09 05:27:35;;;;;;;12.57;5.43;;;18.60;99.90;;;;;;5035432;28;20083;-88
2023/06/09 05:30:01;;;;;;;7.65;5.70;;;18.60;99.90;;;;;;5034943;28;20026;-88
2023/06/09 05:32:26;;;;;;;8.93;6.25;;;18.60;99.90;;;;;;5034722;28;20107;-89
2023/06/09 05:34:52;;;;;;;11.68;7.50;;;18.60;99.90;;;;;;5016910;28;20022;-88
2023/06/09 05:37:18;;;;;;;7.72;6.88;;;18.60;99.90;;;;;;5034494;28;20076;-87
2023/06/09 05:39:44;;;;;;;9.05;7.53;;;18.60;99.90;;;;;;5017305;28;20077;-89
2023/06/09 05:42:11;;;;;;;15.48;7.82;;;18.60;99.90;;;;;;5016827;28;20064;-88
2023/06/09 05:44:37;;;;;;;11.35;7.43;;;18.70;99.90;;;;;;5017317;28;20033;-88
2023/06/09 05:47:03;;;;;;;11.40;6.65;;;19.10;99.90;;;;;;5016881;28;20196;-89
2023/06/09 05:49:28;;;;;;;9.50;6.50;;;19.40;99.90;;;;;;5034652;28;20049;-89
2023/06/09 05:51:54;;;;;;;9.05;6.00;;;19.80;99.90;;;;;;5034461;28;20159;-89
2023/06/09 05:54:20;;;;;;;14.15;7.20;;;20.20;99.90;;;;;;5034178;28;20022;-89
2023/06/09 05:56:48;;;;;;;9.48;6.22;;;20.30;99.90;;;;;;5018286;28;20041;-89
2023/06/09 05:59:15;;;;;;;13.45;8.50;;;20.60;99.90;;;;;;5017483;28;20029;-89
2023/06/09 06:01:41;;;;;;;15.88;9.15;;;20.90;99.90;;;;;;5034477;28;20029;-89
2023/06/09 06:04:08;;;;;;;12.23;9.23;;;20.90;99.90;;;;;;5017475;28;20039;-90
2023/06/09 06:06:34;;;;;;;18.75;11.50;;;20.70;99.90;;;;;;5017453;28;20022;-90
2023/06/09 06:09:00;;;;;;;16.05;10.68;;;20.50;99.90;;;;;;5034866;28;20029;-90
2023/06/09 06:11:26;;;;;;;17.95;12.65;;;20.60;99.90;;;;;;5015360;28;20027;-89
2023/06/09 06:13:51;;;;;;;17.65;9.20;;;20.80;99.90;;;;;;5016493;28;20080;-89
2023/06/09 06:16:17;;;;;;;13.55;8.75;;;21.00;99.90;;;;;;5034698;28;20028;-90
2023/06/09 06:18:42;;;;;;;17.83;8.20;;;21.30;99.90;;;;;;5034909;28;20029;-90
2023/06/09 06:21:08;;;;;;;16.60;8.50;;;21.40;99.90;;;;;;5016450;28;20029;-90
2023/06/09 06:23:35;;;;;;;14.27;8.38;;;21.40;99.90;;;;;;5016745;28;20077;-90
2023/06/09 06:26:01;;;;;;;13.35;7.70;;;21.40;99.90;;;;;;5016629;28;20060;-90
2023/06/09 06:28:28;;;;;;;11.88;7.28;;;21.60;99.90;;;;;;5016412;28;20077;-90
2023/06/09 06:30:53;;;;;;;16.02;8.30;;;22.00;99.90;;;;;;5016605;28;20025;-90
2023/06/09 06:33:19;;;;;;;8.40;5.45;;;22.60;99.90;;;;;;5034187;28;20152;-90
2023/06/09 06:35:45;;;;;;;11.45;6.13;;;23.20;99.90;;;;;;5015974;28;20022;-90
2023/06/09 06:38:10;;;;;;;8.95;5.32;;;24.00;99.90;;;;;;5016572;28;20025;-90
2023/06/09 06:40:36;;;;;;;7.50;5.50;;;24.70;99.90;;;;;;5016890;28;20159;-91
2023/06/09 06:43:02;;;;;;;12.10;5.22;;;24.80;99.90;;;;;;5016260;28;20040;-89
2023/06/09 06:45:28;;;;;;;12.52;5.28;;;24.10;99.90;;;;;;5016409;28;20026;-88
2023/06/09 06:47:54;;;;;;;8.82;5.47;;;23.30;99.90;;;;;;5017358;28;20029;-90
2023/06/09 06:50:20;;;;;;;16.70;4.80;;;22.90;99.90;;;;;;5033503;28;20022;-88
2023/06/09 06:52:48;;;;;;;6.95;4.45;;;22.40;99.90;;;;;;5015425;28;20063;-89
2023/06/09 06:55:14;;;;;;;13.43;5.10;;;22.30;99.90;;;;;;5032924;28;20100;-89
2023/06/09 06:57:41;;;;;;;13.52;6.50;;;22.60;99.90;;;;;;5034646;28;20032;-90
2023/06/09 07:00:16;;;;;;;11.77;6.32;;;22.40;99.90;;;;;;5021057;28;20029;-89
2023/06/09 07:02:44;;;;;;;24.15;5.20;;;22.40;99.90;;;;;;5033456;28;20037;-89
2023/06/09 07:05:10;;;;;;;12.15;5.65;;;22.40;99.90;;;;;;5033647;28;20094;-89
2023/06/09 07:07:36;;;;;;;10.40;5.05;;;22.40;99.90;;;;;;5033457;28;20485;-89
2023/06/09 07:10:02;;;;;;;11.75;4.97;;;22.10;99.90;;;;;;5016236;28;20022;-88
2023/06/09 07:12:28;;;;;;;18.95;4.93;;;21.70;99.90;;;;;;5015499;28;20025;-87
2023/06/09 07:14:55;;;;;;;13.95;5.20;;;21.30;99.90;;;;;;5015396;28;20050;-89
2023/06/09 07:17:21;;;;;;;8.75;6.55;;;21.10;99.90;;;;;;5015850;28;20482;-89
2023/06/09 07:19:46;;;;;;;11.35;6.10;;;20.80;99.90;;;;;;5033517;28;20017;-89
2023/06/09 07:22:12;;;;;;;17.27;6.28;;;20.40;99.90;;;;;;5033289;28;20044;-89
2023/06/09 07:24:38;;;;;;;14.30;5.85;;;20.30;99.90;;;;;;5032808;28;20028;-89
2023/06/09 07:27:05;;;;;;;11.63;6.28;;;20.00;99.90;;;;;;5033470;28;20033;-90
2023/06/09 07:29:31;;;;;;;9.70;5.65;;;19.90;99.90;;;;;;5033463;28;20024;-88
2023/06/09 07:31:56;;;;;;;10.27;6.32;;;19.90;99.90;;;;;;5015628;28;20026;-89
2023/06/09 07:34:27;;;;;;;15.65;6.68;;;19.80;99.90;;;;;;5015740;28;20053;-88
2023/06/09 07:36:53;;;;;;;10.68;5.53;;;19.70;99.90;;;;;;5032388;28;20030;-89
2023/06/09 07:39:19;;;;;;;13.43;7.15;;;19.70;99.90;;;;;;5015291;28;20017;-89
2023/06/09 07:41:45;;;;;;;14.05;6.43;;;19.80;99.90;;;;;;5015202;28;20041;-89
2023/06/09 07:44:11;;;;;;;12.52;6.32;;;19.80;99.90;;;;;;5015259;28;20417;-88
2023/06/09 07:46:36;;;;;;;11.85;7.18;;;19.80;99.90;;;;;;5015231;28;20481;-89
2023/06/09 07:49:02;;;;;;;11.73;7.05;;;19.80;99.90;;;;;;5014998;28;20124;-89
2023/06/09 07:51:29;;;;;;;16.77;8.13;;;19.80;99.90;;;;;;5032539;28;20144;-89
2023/06/09 07:53:55;;;;;;;13.05;6.90;;;19.80;99.90;;;;;;5033184;28;20032;-89
2023/06/09 07:56:21;;;;;;;10.60;6.80;;;19.80;99.90;;;;;;5032661;28;20018;-88
2023/06/09 07:58:49;;;;;;;11.05;6.75;;;19.70;99.90;;;;;;5033152;28;20055;-89
2023/06/09 08:01:15;;;;;;;10.63;7.18;;;19.60;99.90;;;;;;5014900;28;20017;-89
2023/06/09 08:03:41;;;;;;;13.13;7.43;;;19.50;99.90;;;;;;5016046;28;20036;-89
2023/06/09 08:06:08;;;;;;;14.95;8.07;;;19.40;99.90;;;;;;5016445;28;20489;-89
2023/06/09 08:08:34;;;;;;;13.90;8.75;;;19.40;99.90;;;;;;5016313;28;20099;-89
2023/06/09 08:11:00;;;;;;;16.27;8.10;;;19.30;99.90;;;;;;5015870;28;20029;-88
2023/06/09 08:13:27;;;;;;;17.25;8.38;;;19.30;99.90;;;;;;5032856;28;20049;-89
2023/06/09 08:15:52;;;;;;;16.25;8.63;;;19.40;99.90;;;;;;5016474;28;20129;-89
2023/06/09 08:18:18;;;;;;;16.95;8.80;;;19.50;99.90;;;;;;5017069;28;20053;-89
2023/06/09 08:20:43;;;;;;;11.02;8.25;;;19.60;99.90;;;;;;5020001;28;20060;-89
2023/06/09 08:23:09;;;;;;;13.43;9.18;;;19.70;99.90;;;;;;5036431;28;20049;-87
2023/06/09 08:25:35;;;;;;;15.95;8.20;;;19.80;99.90;;;;;;5031385;28;20076;-89
2023/06/09 08:28:01;;;;;;;10.40;8.77;;;19.90;99.90;;;;;;5032792;28;20030;-91
2023/06/09 08:30:27;;;;;;;14.57;9.25;;;19.80;99.90;;;;;;5015230;28;20025;-89
2023/06/09 08:32:53;;;;;;;12.90;8.20;;;19.80;99.90;;;;;;5032315;28;20045;-88
2023/06/09 08:35:20;;;;;;;12.57;8.73;;;19.90;99.90;;;;;;5034640;28;20021;-87
2023/06/09 08:37:47;;;;;;;10.90;8.52;;;19.70;99.90;;;;;;5018283;28;20512;-88
2023/06/09 08:40:13;;;;;;;9.85;7.03;;;19.60;99.90;;;;;;5036179;28;20018;-88
2023/06/09 08:42:39;;;;;;;8.85;7.38;;;19.60;99.90;;;;;;5018204;28;20040;-89
2023/06/09 08:45:05;;;;;;;9.60;8.63;;;19.50;99.90;;;;;;5018308;28;20017;-88
2023/06/09 08:47:33;;;;;;;9.85;8.70;;;19.50;99.90;;;;;;5035535;28;20024;-88
2023/06/09 08:49:59;;;;;;;9.30;8.30;;;19.60;99.90;;;;;;5018646;28;20037;-88
2023/06/09 08:52:27;;;;;;;11.23;8.50;;;19.70;99.90;;;;;;5018346;28;20086;-88
2023/06/09 08:54:55;;;;;;;9.00;6.03;;;19.90;99.90;;;;;;5018620;28;20037;-87
2023/06/09 08:57:21;;;;;;;8.13;6.10;;;20.00;99.90;;;;;;5039286;28;20025;-86
2023/06/09 08:59:48;;;;;;;9.85;5.40;;;20.20;99.90;;;;;;5020428;28;20033;-89
2023/06/09 09:02:14;;;;;;;7.13;5.32;;;20.30;99.90;;;;;;5018193;28;20117;-88
2023/06/09 09:04:40;;;;;;;6.05;5.45;;;20.30;99.90;;;;;;5017925;28;20112;-88
2023/06/09 09:07:08;;;;;;;7.75;5.68;;;20.40;99.90;;;;;;5018671;28;20030;-89
2023/06/09 09:09:33;;;;;;;7.45;5.10;;;20.60;99.90;;;;;;5018295;28;20112;-87
2023/06/09 09:12:01;;;;;;;5.40;4.57;;;20.80;99.90;;;;;;5035743;28;20056;-88
2023/06/09 09:14:27;;;;;;;5.03;4.53;;;21.00;99.90;;;;;;5035958;28;20050;-89
2023/06/09 09:16:53;;;;;;;5.72;5.13;;;21.20;99.90;;;;;;5019082;28;20033;-89
2023/06/09 09:19:29;;;;;;;4.05;3.50;;;21.30;99.90;;;;;;5017997;28;20450;-89
2023/06/09 09:22:05;;;;;;;4.18;3.78;;;21.30;99.90;;;;;;5017320;28;20064;-89
2023/06/09 09:24:31;;;;;;;3.17;2.88;;;21.10;99.90;;;;;;5034453;28;20398;-89
2023/06/09 09:26:57;;;;;;;2.78;2.00;;;21.00;99.90;;;;;;5034925;28;20025;-89
2023/06/09 09:29:26;;;;;;;2.75;2.30;;;20.80;99.90;;;;;;5018407;28;20032;-88
2023/06/09 09:31:58;;;;;;;3.20;2.42;;;20.90;99.90;;;;;;5017839;28;20075;-88
2023/06/09 09:34:26;;;;;;;7.80;2.85;;;21.00;99.90;;;;;;5034563;28;20021;-88
2023/06/09 09:36:55;;;;;;;5.82;2.72;;;21.20;99.90;;;;;;5017178;28;20499;-88
2023/06/09 09:39:22;;;;;;;5.32;3.22;;;21.30;99.90;;;;;;5017067;28;20040;-88
2023/06/09 09:42:20;;;;;;;3.78;2.72;;;21.40;99.90;;;;;;5017563;28;20037;-88
2023/06/09 09:44:49;;;;;;;2.95;2.63;;;21.40;99.90;;;;;;4974362;28;20207;-88
2023/06/09 09:47:19;;;;;;;3.13;2.38;;;21.20;99.90;;;;;;5017627;28;20179;-89
2023/06/09 09:49:54;;;;;;;6.07;2.70;;;21.10;99.90;;;;;;5017707;28;20026;-89
2023/06/09 09:52:28;;;;;;;4.40;2.72;;;20.90;99.90;;;;;;5017551;28;20029;-88
2023/06/09 09:55:00;;;;;;;3.58;2.72;;;20.70;99.90;;;;;;5034562;28;20026;-88
2023/06/09 09:57:30;;;;;;;2.65;1.90;;;20.70;99.90;;;;;;5017380;28;20033;-89
2023/06/09 09:59:59;;;;;;;3.13;2.20;;;20.60;99.90;;;;;;5017656;28;20510;-89
2023/06/09 10:02:25;;;;;;;2.33;1.90;;;20.60;99.90;;;;;;5017443;28;20549;-89
2023/06/09 10:04:52;;;;;;;4.80;2.33;;;20.60;99.90;;;;;;5034937;28;20029;-89
2023/06/09 10:07:23;;;;;;;5.68;2.42;;;20.60;99.90;;;;;;5017360;28;20038;-89
2023/06/09 10:09:53;;;;;;;4.18;1.70;;;20.60;99.90;;;;;;5034547;28;20148;-89
2023/06/09 10:12:20;;;;;;;4.85;2.15;;;20.60;99.90;;;;;;5034983;28;20394;-89
2023/06/09 10:14:48;;;;;;;3.42;2.28;;;20.90;99.90;;;;;;5017272;28;20056;-89
2023/06/09 10:17:17;;;;;;;2.53;1.88;;;21.20;99.90;;;;;;5017627;28;20037;-89
2023/06/09 10:19:43;;;;;;;2.30;1.67;;;21.50;99.90;;;;;;5034835;28;20017;-89
2023/06/09 10:22:10;;;;;;;2.53;1.75;;;21.80;99.90;;;;;;5017033;28;20037;-88
2023/06/09 10:24:36;;;;;;;6.32;1.75;;;22.10;99.90;;;;;;5016944;28;20026;-89
2023/06/09 10:27:04;;;;;;;1.77;1.27;;;22.30;99.90;;;;;;5035175;28;20125;-90
2023/06/09 10:29:29;;;;;;;5.22;2.75;;;22.40;99.90;;;;;;5017036;28;20061;-90
2023/06/09 10:31:57;;;;;;;1.77;1.52;;;22.40;99.90;;;;;;5034501;28;20057;-89
2023/06/09 10:34:24;;;;;;;3.53;1.40;;;22.50;99.90;;;;;;5016763;28;20048;-90
2023/06/09 10:36:55;;;;;;;2.90;2.00;;;22.70;99.90;;;;;;5016895;28;20025;-89
2023/06/09 10:39:25;;;;;;;5.47;1.50;;;22.90;99.90;;;;;;5033848;28;20541;-90
2023/06/09 10:42:13;;;;;;;1.98;1.00;;;23.00;99.90;;;;;;5016394;28;20474;-89
2023/06/09 10:44:54;;;;;;;1.60;1.15;;;23.10;99.90;;;;;;5016319;28;20440;-89
2023/06/09 10:47:44;;;;;;;1.52;1.08;;;23.20;99.90;;;;;;5016468;28;20083;-89
2023/06/09 10:50:24;;;;;;;2.30;1.20;;;23.50;99.90;;;;;;5034070;28;20085;-90
2023/06/09 10:52:54;;;;;;;2.28;1.45;;;24.00;99.90;;;;;;5016651;28;20040;-90
2023/06/09 10:55:22;;;;;;;1.65;0.93;;;24.20;99.90;;;;;;5040579;28;20032;-89
2023/06/09 10:57:53;;;;;;;3.20;1.00;;;24.30;99.90;;;;;;5015788;28;20028;-89
2023/06/09 11:00:20;;;;;;;4.63;1.25;;;24.40;99.90;;;;;;5015827;28;20049;-89
2023/06/09 11:02:52;;;;;;;1.55;0.90;;;24.50;99.90;;;;;;5015615;28;20034;-90
2023/06/09 11:05:20;;;;;;;1.83;1.00;;;24.60;99.90;;;;;;5033824;28;20053;-89
2023/06/09 11:07:47;;;;;;;2.63;1.10;;;24.70;99.90;;;;;;5034127;28;20093;-90
2023/06/09 11:10:13;;;;;;;2.83;1.10;;;24.80;99.90;;;;;;5016526;28;20029;-90
2023/06/09 11:12:38;;;;;;;2.95;1.55;;;24.80;99.90;;;;;;5017153;28;20071;-89
2023/06/09 11:15:07;;;;;;;1.40;0.93;;;25.00;99.90;;;;;;5017929;28;20033;-89
2023/06/09 11:17:33;;;;;;;1.80;0.88;;;25.00;99.90;;;;;;5016264;28;20030;-88
2023/06/09 11:20:20;;;;;;;1.60;1.10;;;25.20;99.90;;;;;;5033931;28;20021;-89
2023/06/09 11:22:48;;;;;;;2.25;1.17;;;25.40;99.90;;;;;;5017080;28;20041;-89
2023/06/09 11:25:17;;;;;;;3.90;1.33;;;25.50;99.90;;;;;;5016281;28;20394;-91
2023/06/09 11:27:44;;;;;;;1.60;1.30;;;25.50;99.90;;;;;;5017862;28;20030;-90
2023/06/09 11:30:17;;;;;;;2.13;0.90;;;25.50;99.90;;;;;;5033674;28;20041;-90
2023/06/09 11:32:55;;;;;;;4.70;1.02;;;25.60;99.10;;;;;;5052624;28;20028;-89
2023/06/09 11:35:39;;;;;;;5.43;0.98;;;25.60;97.40;;;;;;5034224;28;20021;-90
2023/06/09 11:38:10;;;;;;;2.55;0.85;;;25.60;98.70;;;;;;5015807;28;20456;-89
2023/06/09 11:40:48;;;;;;;1.67;0.80;;;25.60;97.80;;;;;;5016403;28;20108;-91
2023/06/09 11:43:14;;;;;;;1.92;0.93;;;25.60;98.20;;;;;;5033020;28;20186;-90
2023/06/09 11:45:40;;;;;;;2.72;0.80;;;25.60;97.90;;;;;;5033500;28;20090;-91
2023/06/09 11:48:07;;;;;;;1.70;0.80;;;25.60;95.90;;;;;;5015110;28;20488;-91
2023/06/09 11:50:42;;;;;;;2.55;0.88;;;25.60;97.30;;;;;;5032530;28;20036;-91
2023/06/09 11:53:13;;;;;;;2.55;0.60;;;25.60;98.10;;;;;;5015097;28;20029;-89
2023/06/09 11:55:39;;;;;;;1.50;0.77;;;25.70;99.10;;;;;;5032695;28;20501;-91
2023/06/09 11:58:08;;;;;;;1.10;0.70;;;25.70;96.60;;;;;;5032890;28;20060;-91
2023/06/09 12:00:38;;;;;;;1.20;0.80;;;25.60;97.50;;;;;;5016358;28;20022;-91
2023/06/09 12:03:07;;;;;;;5.53;0.63;;;25.50;96.30;;;;;;5015511;28;20453;-91
2023/06/09 12:05:34;;;;;;;1.08;0.93;;;25.30;98.30;;;;;;5032440;28;20036;-91
2023/06/09 12:08:02;;;;;;;2.70;0.60;;;25.20;97.30;;;;;;5014867;28;20079;-90
2023/06/09 12:10:29;;;;;;;1.10;0.80;;;25.00;98.80;;;;;;5036728;28;20025;-91
2023/06/09 12:12:57;;;;;;;1.35;0.65;;;24.70;99.90;;;;;;5020139;28;20028;-92
2023/06/09 12:15:24;;;;;;;1.52;1.00;;;24.50;99.90;;;;;;5024032;28;20025;-90
2023/06/09 12:17:52;;;;;;;4.97;0.80;;;24.20;99.90;;;;;;5039102;28;20029;-89
2023/06/09 12:20:31;;;;;;;3.15;0.70;;;24.00;99.90;;;;;;5018921;28;20045;-91
2023/06/09 12:23:02;;;;;;;2.05;0.73;;;23.70;99.90;;;;;;5019156;28;20080;-91
2023/06/09 12:25:30;;;;;;;7.68;0.73;;;23.50;99.90;;;;;;5018881;28;20018;-90
2023/06/09 12:27:58;;;;;;;1.35;0.80;;;23.20;99.90;;;;;;5019263;28;20386;-91
2023/06/09 12:30:38;;;;;;;2.85;1.00;;;23.10;99.90;;;;;;5018824;28;20091;-90
2023/06/09 12:33:12;;;;;;;4.00;2.00;;;23.00;99.90;;;;;;5019077;28;20033;-90
2023/06/09 12:35:43;;;;;;;3.50;2.03;;;22.90;99.90;;;;;;5019192;28;20026;-92
2023/06/09 12:38:17;;;;;;;6.78;2.47;;;22.80;99.90;;;;;;5036060;28;20084;-92
2023/06/09 12:40:44;;;;;;;4.03;2.13;;;22.70;99.90;;;;;;5018490;28;20566;-91
2023/06/09 12:43:11;;;;;;;3.88;1.70;;;22.60;99.90;;;;;;5036260;28;20486;-91
2023/06/09 12:45:37;;;;;;;2.10;1.33;;;22.60;99.90;;;;;;5018578;28;20022;-92
2023/06/09 12:48:06;;;;;;;4.32;1.50;;;22.70;99.90;;;;;;5018362;28;20037;-92